地図

経路データ

SID SEASON NUMBER BASIN SUBBASIN NAME ISO_TIME NATURE LAT LON WMO_WIND WMO_PRES WMO_AGENCY TRACK_TYPE DIST2LAND LANDFALL IFLAG USA_AGENCY USA_ATCF_ID USA_LAT USA_LON USA_RECORD USA_STATUS USA_WIND USA_PRES USA_SSHS USA_R34_NE USA_R34_SE USA_R34_SW USA_R34_NW USA_R50_NE USA_R50_SE USA_R50_SW USA_R50_NW USA_R64_NE USA_R64_SE USA_R64_SW USA_R64_NW USA_POCI USA_ROCI USA_RMW USA_EYE TOKYO_LAT TOKYO_LON TOKYO_GRADE TOKYO_WIND TOKYO_PRES TOKYO_R50_DIR TOKYO_R50_LONG TOKYO_R50_SHORT TOKYO_R30_DIR TOKYO_R30_LONG TOKYO_R30_SHORT TOKYO_LAND CMA_LAT CMA_LON CMA_CAT CMA_WIND CMA_PRES HKO_LAT HKO_LON HKO_CAT HKO_WIND HKO_PRES NEWDELHI_LAT NEWDELHI_LON NEWDELHI_GRADE NEWDELHI_WIND NEWDELHI_PRES NEWDELHI_CI NEWDELHI_DP NEWDELHI_POCI REUNION_LAT REUNION_LON REUNION_TYPE REUNION_WIND REUNION_PRES REUNION_TNUM REUNION_CI REUNION_RMW REUNION_R34_NE REUNION_R34_SE REUNION_R34_SW REUNION_R34_NW REUNION_R50_NE REUNION_R50_SE REUNION_R50_SW REUNION_R50_NW REUNION_R64_NE REUNION_R64_SE REUNION_R64_SW REUNION_R64_NW BOM_LAT BOM_LON BOM_TYPE BOM_WIND BOM_PRES BOM_TNUM BOM_CI BOM_RMW BOM_R34_NE BOM_R34_SE BOM_R34_SW BOM_R34_NW BOM_R50_NE BOM_R50_SE BOM_R50_SW BOM_R50_NW BOM_R64_NE BOM_R64_SE BOM_R64_SW BOM_R64_NW BOM_ROCI BOM_POCI BOM_EYE BOM_POS_METHOD BOM_PRES_METHOD NADI_LAT NADI_LON NADI_CAT NADI_WIND NADI_PRES WELLINGTON_LAT WELLINGTON_LON WELLINGTON_WIND WELLINGTON_PRES DS824_LAT DS824_LON DS824_STAGE DS824_WIND DS824_PRES TD9636_LAT TD9636_LON TD9636_STAGE TD9636_WIND TD9636_PRES TD9635_LAT TD9635_LON TD9635_WIND TD9635_PRES TD9635_ROCI NEUMANN_LAT NEUMANN_LON NEUMANN_CLASS NEUMANN_WIND NEUMANN_PRES MLC_LAT MLC_LON MLC_CLASS MLC_WIND MLC_PRES USA_GUST BOM_GUST BOM_GUST_PER REUNION_GUST REUNION_GUST_PER USA_SEAHGT USA_SEARAD_NE USA_SEARAD_SE USA_SEARAD_SW USA_SEARAD_NW STORM_SPEED STORM_DIR
1923314N10090 1923 72 NI BB NOT_NAMED 1923-11-10 00:00:00 TS 10.0000 89.9000 main 764 764 _________O____ -1 10.0000 89.9000 TC 34 2 292
1923314N10090 1923 72 NI BB NOT_NAMED 1923-11-10 03:00:00 TS 10.0417 89.7967 main 772 772 _________PO___ -1 10.0625 89.7450 TC 41 10.0000 89.9000 2 2 287
1923314N10090 1923 72 NI BB NOT_NAMED 1923-11-10 06:00:00 TS 10.0700 89.6706 main 788 788 _________OP___ -1 10.1000 89.6000 TC 49 10.0250 89.7766 2 3 278
1923314N10090 1923 72 NI BB NOT_NAMED 1923-11-10 09:00:00 TS 10.0785 89.5411 main 805 805 _________PP___ -1 10.1000 89.4650 TC 56 10.0500 89.6425 2 3 274
1923314N10090 1923 72 NI BB NOT_NAMED 1923-11-10 12:00:00 TS 10.0875 89.3936 main 814 814 _________OP___ -1 10.1000 89.3000 TC 64 10.0750 89.4872 2 4 277
1923314N10090 1923 72 NI BB NOT_NAMED 1923-11-10 15:00:00 TS 10.1250 89.1825 main 831 831 _________PO___ -1 10.1500 89.0650 TC 64 10.1000 89.3000 4 5 279
1923314N10090 1923 72 NI BB NOT_NAMED 1923-11-10 18:00:00 TS 10.1625 88.9373 main 833 812 _________OP___ -1 10.2000 88.8000 TC 64 10.1251 89.0747 4 5 276
1923314N10090 1923 72 NI BB NOT_NAMED 1923-11-10 21:00:00 TS 10.1788 88.6862 main 812 781 _________PP___ -1 10.2075 88.5500 TC 64 10.1501 88.8225 4 5 273
1923314N10090 1923 72 NI BB NOT_NAMED 1923-11-11 00:00:00 TS 10.1875 88.4295 main 781 761 _________OP___ -1 10.2000 88.3000 TC 64 10.1750 88.5591 4 5 272
1923314N10090 1923 72 NI BB NOT_NAMED 1923-11-11 03:00:00 TS 10.1962 88.1712 main 761 731 _________PO___ -1 10.1925 88.0425 TC 64 10.2000 88.3000 4 5 273
1923314N10090 1923 72 NI BB NOT_NAMED 1923-11-11 06:00:00 TS 10.2104 87.9359 main 731 711 _________OP___ -1 10.2000 87.8000 TC 64 10.2208 88.0718 4 4 276
1923314N10090 1923 72 NI BB NOT_NAMED 1923-11-11 09:00:00 TS 10.2424 87.7250 main 711 695 _________PP___ -1 10.2425 87.6000 TC 64 10.2424 87.8499 4 4 280
1923314N10090 1923 72 NI BB NOT_NAMED 1923-11-11 12:00:00 TS 10.2839 87.5140 main 695 676 _________OP___ -1 10.3000 87.4000 TC 64 10.2677 87.6281 4 4 281
1923314N10090 1923 72 NI BB NOT_NAMED 1923-11-11 15:00:00 TS 10.3250 87.2787 main 676 651 _________PO___ -1 10.3500 87.1575 TC 64 10.3000 87.4000 4 5 280
1923314N10090 1923 72 NI BB NOT_NAMED 1923-11-11 18:00:00 TS 10.3694 87.0266 main 651 631 _________OP___ -1 10.4000 86.9000 TC 64 10.3387 87.1531 4 5 281
1923314N10090 1923 72 NI BB NOT_NAMED 1923-11-11 21:00:00 TS 10.4175 86.7750 main 631 606 _________PP___ -1 10.4500 86.6500 TC 64 10.3850 86.9000 4 5 281
1923314N10090 1923 72 NI BB NOT_NAMED 1923-11-12 00:00:00 TS 10.4694 86.5234 main 606 587 _________OP___ -1 10.5000 86.4000 TC 64 10.4387 86.6469 4 5 282
1923314N10090 1923 72 NI BB NOT_NAMED 1923-11-12 03:00:00 TS 10.5212 86.2712 main 587 561 _________PO___ -1 10.5425 86.1425 TC 64 10.5000 86.4000 4 5 283
1923314N10090 1923 72 NI BB NOT_NAMED 1923-11-12 06:00:00 TS 10.5798 86.0319 main 561 542 _________OP___ -1 10.6000 85.9000 TC 64 10.5596 86.1637 4 5 287
1923314N10090 1923 72 NI BB NOT_NAMED 1923-11-12 09:00:00 TS 10.6600 85.8137 main 547 528 _________PP___ -1 10.6925 85.6925 TC 64 10.6274 85.9349 4 5 293
1923314N10090 1923 72 NI BB NOT_NAMED 1923-11-12 12:00:00 TS 10.7533 85.6068 main 533 514 _________OP___ -1 10.8000 85.5000 TC 64 10.7065 85.7137 4 4 295
1923314N10090 1923 72 NI BB NOT_NAMED 1923-11-12 15:00:00 TS 10.8462 85.4000 main 514 502 _________PO___ -1 10.8925 85.3000 TC 64 10.8000 85.5000 4 4 297
1923314N10090 1923 72 NI BB NOT_NAMED 1923-11-12 18:00:00 TS 10.9573 85.2025 main 508 495 _________OP___ -1 11.0000 85.1000 TC 64 10.9146 85.3050 4 5 303
1923314N10090 1923 72 NI BB NOT_NAMED 1923-11-12 21:00:00 TS 11.0961 85.0150 main 495 483 _________PP___ -1 11.1500 84.9150 TC 64 11.0423 85.1150 4 5 306
1923314N10090 1923 72 NI BB NOT_NAMED 1923-11-13 00:00:00 TS 11.2370 84.8087 main 483 472 _________OP___ -1 11.3000 84.7000 TC 64 11.1739 84.9175 4 5 300
1923314N10090 1923 72 NI BB NOT_NAMED 1923-11-13 03:00:00 TS 11.3538 84.5537 main 477 449 _________PO___ -1 11.4075 84.4075 TC 64 11.3000 84.7000 4 6 291
1923314N10090 1923 72 NI BB NOT_NAMED 1923-11-13 06:00:00 TS 11.4435 84.2671 main 449 428 _________OP___ -1 11.5000 84.1000 TC 64 11.3870 84.4342 4 6 288
1923314N10090 1923 72 NI BB NOT_NAMED 1923-11-13 09:00:00 TS 11.5275 83.9961 main 428 393 _________PP___ -1 11.5850 83.8424 TC 64 11.4701 84.1498 4 6 290
1923314N10090 1923 72 NI BB NOT_NAMED 1923-11-13 12:00:00 TS 11.6341 83.7327 main 393 367 _________OP___ -1 11.7000 83.6000 TC 64 11.5682 83.8655 4 6 297
1923314N10090 1923 72 NI BB NOT_NAMED 1923-11-13 15:00:00 TS 11.7888 83.4675 main 367 330 _________PO___ -1 11.8775 83.3350 TC 64 11.7000 83.6000 4 6 306
1923314N10090 1923 72 NI BB NOT_NAMED 1923-11-13 18:00:00 TS 11.9925 83.2311 main 330 316 _________OP___ -1 12.1000 83.1000 TC 64 11.8849 83.3623 4 6 316
1923314N10090 1923 72 NI BB NOT_NAMED 1923-11-13 21:00:00 TS 12.2237 83.0413 main 306 293 _________PP___ -1 12.3425 82.9350 TC 64 12.1049 83.1476 4 6 325
1923314N10090 1923 72 NI BB NOT_NAMED 1923-11-14 00:00:00 TS 12.4737 82.8796 main 293 268 _________OP___ -1 12.6000 82.8000 TC 64 12.3475 82.9591 4 6 328
1923314N10090 1923 72 NI BB NOT_NAMED 1923-11-14 03:00:00 TS 12.7250 82.7175 main 268 251 _________PO___ -1 12.8500 82.6350 TC 64 12.6000 82.8000 4 6 329
1923314N10090 1923 72 NI BB NOT_NAMED 1923-11-14 06:00:00 TS 12.9673 82.5775 main 251 238 _________OP___ -1 13.1000 82.5000 TC 64 12.8346 82.6549 4 5 335
1923314N10090 1923 72 NI BB NOT_NAMED 1923-11-14 09:00:00 TS 13.2100 82.4837 main 238 227 _________PP___ -1 13.3425 82.4275 TC 64 13.0774 82.5400 4 5 343
1923314N10090 1923 72 NI BB NOT_NAMED 1923-11-14 12:00:00 TS 13.4658 82.4275 main 227 226 _________OP___ -1 13.6000 82.4000 TC 64 13.3315 82.4550 4 5 350
1923314N10090 1923 72 NI BB NOT_NAMED 1923-11-14 15:00:00 TS 13.7463 82.3962 main 226 226 _________PO___ -1 13.8925 82.3925 TC 64 13.6000 82.4000 4 6 356
1923314N10090 1923 72 NI BB NOT_NAMED 1923-11-14 18:00:00 TS 14.0550 82.3835 main 229 217 _________OP___ -1 14.2000 82.4000 TC 64 13.9100 82.3671 4 6 358
1923314N10090 1923 72 NI BB NOT_NAMED 1923-11-14 21:00:00 TS 14.3762 82.3812 main 217 193 _________PP___ -1 14.5225 82.4000 TC 64 14.2300 82.3623 4 6 2
1923314N10090 1923 72 NI BB NOT_NAMED 1923-11-15 00:00:00 TS 14.6675 82.3882 main 193 173 _________OP___ -1 14.8000 82.4000 TC 64 14.5350 82.3765 4 5 0
1923314N10090 1923 72 NI BB NOT_NAMED 1923-11-15 03:00:00 TS 14.8862 82.3963 main 173 163 _________PO___ -1 14.9725 82.3925 TC 64 14.8000 82.4000 4 4 3
1923314N10090 1923 72 NI BB NOT_NAMED 1923-11-15 06:00:00 TS 15.0466 82.4069 main 163 144 _________OP___ -1 15.1000 82.4000 TC 64 14.9931 82.4138 4 3 8
1923314N10090 1923 72 NI BB NOT_NAMED 1923-11-15 09:00:00 TS 15.1975 82.4388 main 144 138 _________PP___ -1 15.2500 82.4425 TC 64 15.1450 82.4350 4 3 13
1923314N10090 1923 72 NI BB NOT_NAMED 1923-11-15 12:00:00 TS 15.3372 82.4819 main 138 119 _________OP___ -1 15.4000 82.5000 TC 64 15.2744 82.4638 4 3 16
1923314N10090 1923 72 NI BB NOT_NAMED 1923-11-15 15:00:00 TS 15.4750 82.5250 main 119 109 _________PO___ -1 15.5500 82.5500 TC 64 15.4000 82.5000 4 3 16
1923314N10090 1923 72 NI BB NOT_NAMED 1923-11-15 18:00:00 TS 15.6250 82.5674 main 114 94 _________OP___ -1 15.7000 82.6000 TC 64 15.5500 82.5347 4 3 14
1923314N10090 1923 72 NI BB NOT_NAMED 1923-11-15 21:00:00 TS 15.7750 82.6100 main 94 84 _________PP___ -1 15.8500 82.6425 TC 64 15.7000 82.5776 4 3 17
1923314N10090 1923 72 NI BB NOT_NAMED 1923-11-16 00:00:00 TS 15.9250 82.6658 main 89 70 _________OP___ -1 16.0000 82.7000 TC 64 15.8500 82.6316 4 3 24
1923314N10090 1923 72 NI BB NOT_NAMED 1923-11-16 03:00:00 TS 16.0750 82.7462 main 70 69 _________PO___ -1 16.1500 82.7925 TC 64 16.0000 82.7000 4 4 30
1923314N10090 1923 72 NI BB NOT_NAMED 1923-11-16 06:00:00 TS 16.2270 82.8468 main 69 67 _________OP___ -1 16.3000 82.9000 TC 64 16.1541 82.7937 4 4 33
1923314N10090 1923 72 NI BB NOT_NAMED 1923-11-16 09:00:00 TS 16.3788 82.9537 main 77 72 _________PP___ -1 16.4500 83.0075 TC 64 16.3076 82.8999 4 4 33
1923314N10090 1923 72 NI BB NOT_NAMED 1923-11-16 12:00:00 TS 16.5286 83.0531 main 81 75 _________OP___ -1 16.6000 83.1000 TC 64 16.4572 83.0062 4 3 29
1923314N10090 1923 72 NI BB NOT_NAMED 1923-11-16 15:00:00 TS 16.6787 83.1288 main 75 75 _________PO___ -1 16.7575 83.1575 TC 64 16.6000 83.1000 4 3 23
1923314N10090 1923 72 NI BB NOT_NAMED 1923-11-16 18:00:00 TS 16.8140 83.1782 main 79 70 _________OP___ -1 16.9000 83.2000 TC 64 16.7281 83.1564 4 3 20
1923314N10090 1923 72 NI BB NOT_NAMED 1923-11-16 21:00:00 TS 16.9250 83.2214 main 70 59 _________PP___ -1 17.0000 83.2425 TC 64 16.8499 83.2002 4 2 21
1923314N10090 1923 72 NI BB NOT_NAMED 1923-11-17 00:00:00 TS 17.0359 83.2719 main 64 46 _________OP___ -1 17.1000 83.3000 TC 64 16.9718 83.2439 4 3 26
1923314N10090 1923 72 NI BB NOT_NAMED 1923-11-17 03:00:00 TS 17.1713 83.3463 main 46 39 _________PO___ -1 17.2425 83.3925 TC 64 17.1000 83.3000 4 3 30
1923314N10090 1923 72 NI BB NOT_NAMED 1923-11-17 06:00:00 TS 17.3234 83.4428 main 39 30 _________OP___ -1 17.4000 83.5000 TC 64 17.2469 83.3856 4 4 31
1923314N10090 1923 72 NI BB NOT_NAMED 1923-11-17 09:00:00 TS 17.4750 83.5425 main 30 30 _________PP___ -1 17.5500 83.6000 TC 64 17.4000 83.4850 4 4 33
1923314N10090 1923 72 NI BB NOT_NAMED 1923-11-17 12:00:00 TS 17.6266 83.6459 main 30 23 _________OP___ -1 17.7000 83.7000 TC 64 17.5531 83.5919 4 4 33
1923314N10090 1923 72 NI BB NOT_NAMED 1923-11-17 15:00:00 TS 17.7787 83.7500 main 30 23 _________PO___ -1 17.8575 83.8000 TC 64 17.7000 83.7000 4 3 33
1923314N10090 1923 72 NI BB NOT_NAMED 1923-11-17 18:00:00 TS 17.9140 83.8420 main 23 22 _________OP___ -1 18.0000 83.9000 TC 64 17.8280 83.7839 4 3 35
1923314N10090 1923 72 NI BB NOT_NAMED 1923-11-17 21:00:00 TS 18.0249 83.9277 main 22 15 _________PP___ -1 18.1000 83.9851 TC 64 17.9499 83.8703 4 3 40
1923314N10090 1923 72 NI BB NOT_NAMED 1923-11-18 00:00:00 TS 18.1359 84.0357 main 15 10 _________OP___ -1 18.2000 84.1000 TC 64 18.0718 83.9715 4 4 46
1923314N10090 1923 72 NI BB NOT_NAMED 1923-11-18 03:00:00 TS 18.2713 84.1925 main 10 10 _________PO___ -1 18.3425 84.2850 TC 64 18.2000 84.1000 4 4 49
1923314N10090 1923 72 NI BB NOT_NAMED 1923-11-18 06:00:00 TS 18.4214 84.3876 main 15 10 _________OP___ -1 18.5000 84.5000 TC 64 18.3429 84.2752 4 5 52
1923314N10090 1923 72 NI BB NOT_NAMED 1923-11-18 09:00:00 TS 18.5713 84.5925 main 15 15 _________PP___ -1 18.6500 84.7075 TC 64 18.4926 84.4774 4 5 52
1923314N10090 1923 72 NI BB NOT_NAMED 1923-11-18 12:00:00 TS 18.7230 84.7954 main 23 21 _________OP___ -1 18.8000 84.9000 TC 64 18.6460 84.6909 4 5 50
1923314N10090 1923 72 NI BB NOT_NAMED 1923-11-18 15:00:00 TS 18.8750 84.9750 main 33 33 _________PO___ -1 18.9499 85.0501 TC 59 18.8000 84.9000 4 4 47
1923314N10090 1923 72 NI BB NOT_NAMED 1923-11-18 18:00:00 TS 19.0269 85.1351 main 38 35 _________OP___ -1 19.1000 85.2000 TC 54 18.9539 85.0702 4 4 46
1923314N10090 1923 72 NI BB NOT_NAMED 1923-11-18 21:00:00 TS 19.1786 85.3101 main 35 30 _________PP___ -1 19.2500 85.3850 TC 49 19.1072 85.2352 4 5 49
1923314N10090 1923 72 NI BB NOT_NAMED 1923-11-19 00:00:00 TS 19.3285 85.5038 main 35 24 _________OP___ -1 19.4000 85.6000 TC 45 19.2570 85.4077 4 5 52
1923314N10090 1923 72 NI BB NOT_NAMED 1923-11-19 03:00:00 TS 19.4787 85.7212 main 30 22 _________PO___ -1 19.5575 85.8425 TC 45 19.4000 85.6000 3 5 57
1923314N10090 1923 72 NI BB NOT_NAMED 1923-11-19 06:00:00 TS 19.6182 85.9703 main 30 22 _________OP___ -1 19.7000 86.1000 TC 45 19.5364 85.8406 3 5 62
1923314N10090 1923 72 NI BB NOT_NAMED 1923-11-19 09:00:00 TS 19.7363 86.2287 main 24 22 _________PP___ -1 19.8075 86.3576 TC 45 19.6652 86.0999 3 5 65
1923314N10090 1923 72 NI BB NOT_NAMED 1923-11-19 12:00:00 TS 19.8432 86.4797 main 24 15 _________OP___ -1 19.9000 86.6000 TC 45 19.7864 86.3593 3 5 65
1923314N10090 1923 72 NI BB NOT_NAMED 1923-11-19 15:00:00 TS 19.9500 86.7075 main 33 30 _________PO___ -1 20.0000 86.8150 TC 41 19.9000 86.6000 3 4 62
1923314N10090 1923 72 NI BB NOT_NAMED 1923-11-19 18:00:00 TS 20.0466 86.8902 main 39 30 _________OP___ -1 20.1000 87.0000 TC 37 20.0065 86.8078 3 4 59
1923314N10090 1923 72 NI BB NOT_NAMED 1923-11-19 21:00:00 TS 20.1445 87.0555 main 47 43 _________PP___ -1 20.2000 87.1575 TC 33 20.1074 86.9875 3 3 57
1923314N10090 1923 72 NI BB NOT_NAMED 1923-11-20 00:00:00 TS 20.2364 87.1989 main 53 45 _________OP___ -1 20.3000 87.3000 TC 30 20.2047 87.1484 3 3 56
1923314N10090 1923 72 NI BB NOT_NAMED 1923-11-20 03:00:00 NR 20.3000 87.3000 main 53 __________O___ -1 TC 20.3000 87.3000 1 2 58

IBTrACS Databaseについて

本データベースは、米国NOAAが公開する1842年以降の世界の熱帯低気圧のベストトラックデータアーカイブInternational Best Track Archive for Climate Stewardship (IBTrACS)を、ウェブで閲覧しやすい形式に変換したものです。

最終更新日:2021-12-01